Kensington, Canada
Current Conditions -  °F | °C
As of 11:00 AM on Thursday 23 Oct 2014 (Local Time) from CYYG Reporting Station
Broken Clouds Broken Clouds  
Wind Chill: 12°   Ceiling: 8000
Heat Index: 12°   Visibility: 15mi
Dew Point:   Wind: 14mph
Humidity: 72%   Direction: 70°ENE
Pressure: 30.17"   Gusts: 20mph
Location:  46.43°N, 63.65°W
Report Text: CYYG 231400Z 07012G17KT 15SM FEW020 BKN080 BKN250 12/07 A3017 RMK SC1AC6CI1 SC TR SLP218
Loading
Personal Weather Stations






























Interactive Weather Map
Tropical Storm Tracking
New forecast layout! Learn more

10-Day Weather Forecast

Advertisements
Track Severe Weather on mobile